Terminal Aerodrome Forecast
Issued by NWS

Current Version | Previous Version | Graphics & Text | Print | Product List | Glossary On
Versions: 1 2 3 4 5 6 7 8 9 10 11 12 13 14 15 16 17 18 19 20 21 22 23 24 25 26
000
FTUS41 KILN 241300 AAA
TAFLUK
TAF AMD
KLUK 241300Z 2413/2512 00000KT 5SM BR FEW003 SCT200
      TEMPO 2413/2414 2SM BR BKN002
     FM241400 25003KT P6SM SCT200
     FM241600 25005KT P6SM FEW150
     FM242100 25006KT P6SM SCT050
     FM250600 21004KT P6SM BKN035=

USA.gov is the U.S. government's official web portal to all federal, state and local government web resources and services.